CheckWX is a tool to help pilots better visualize weather data.  It is not intended as a substitute for an official pre-flight weather briefing.

12:23:55 UTC

DTTD METAR
Remada Air Base Airport
Remada, Tunisia
Current

24 mins ago

DTTD 181200Z 20006KT 150V250 9999 SCT023 17/00 Q1024
Observed
Feb-18 @ 12:00 UTC
Wind
  • 200° at 6 KTS
Visibility
10,000+ meters
Flight Rules
VFR
Cloud Levels
  • Scattered at 2,300' AGL
Temperature
17°C / 63°F
Dewpoint
C / 32°F
Humidity
32%
Altimeter
30.24" Hg
Pressure
1023.92 hPa
Previous

1 hour ago

DTTD 181100Z 19008KT 140V250 CAVOK 17/01 Q1025
Observed
Feb-18 @ 11:00 UTC
Wind
  • 190° at 8 KTS
Visibility
10,000+ meters
Flight Rules
VFR
Cloud Levels
  • Clear skies
Temperature
17°C / 63°F
Dewpoint
C / 34°F
Humidity
34%
Altimeter
30.27" Hg
Pressure
1024.92 hPa
Previous

2 hours ago

DTTD 181000Z 19007KT 150V240 CAVOK 15/01 Q1026
Observed
Feb-18 @ 10:00 UTC
Wind
  • 190° at 7 KTS
Visibility
10,000+ meters
Flight Rules
VFR
Cloud Levels
  • Clear skies
Temperature
15°C / 59°F
Dewpoint
C / 34°F
Humidity
39%
Altimeter
30.3" Hg
Pressure
1025.92 hPa